Alcalde, Kentucky
Current Conditions -  °F | °C
As of 4:15 PM on Wednesday 26 Nov 2014 (Local Time) from KSME Reporting Station
Clear Clear  
Wind Chill: 39°   Ceiling: Unl
Heat Index: 43°   Visibility: 10mi
Dew Point: 23°   Wind: 7mph
Humidity: 46%   Direction: 270°W
Pressure: 30.05"   Gusts: NA
Location:  37.0813°N, 84.4741°W
Report Text: KSME 262115Z AUTO 27006KT 10SM CLR 06/M05 A3005 RMK AO2
Loading
Personal Weather Stations






























Interactive Weather Map New forecast layout! Learn more

10-Day Weather Forecast

Advertisements
Track Severe Weather on mobile